Time;durP1;ratioP1;P1;durP2;ratioP2;P2;SDS_P1;SDS_P2;PMS_P1;PMS_P2;Temp;Humidity;BMP_temperature;BMP_pressure;BME280_temperature;BME280_humidity;BME280_pressure;Samples;Min_cycle;Max_cycle;Signal;HPM_P1;HPM_P2
2022/06/05 00:01:40;;;;;;;;;;;;;;;21.36;50.95;101567.19;7275624;19;153682;-56
2022/06/05 00:04:17;;;;;;;;;;;;;;;21.35;50.94;101562.72;7276472;19;152237;-57
2022/06/05 00:06:44;;;;;;;;;;;;;;;21.35;50.80;101570.34;7274785;19;153330;-57
2022/06/05 00:09:26;;;;;;;;;;;;;;;21.35;50.77;101570.34;7278065;19;153223;-57
2022/06/05 00:11:55;;;;;;;;;;;;;;;21.34;50.62;101572.31;7284375;19;152173;-57
2022/06/05 00:14:22;;;;;;;;;;;;;;;21.32;50.97;101577.38;7278272;19;153947;-56
2022/06/05 00:16:49;;;;;;;;;;;;;;;21.33;50.92;101579.06;7275203;19;152145;-56
2022/06/05 00:19:15;;;;;;;;;;;;;;;21.32;50.82;101579.34;7278036;19;154676;-56
2022/06/05 00:21:42;;;;;;;;;;;;;;;21.30;50.68;101580.47;7274267;19;153532;-56
2022/06/05 00:24:09;;;;;;;;;;;;;;;21.28;50.95;101568.72;7279041;19;151719;-56
2022/06/05 00:26:39;;;;;;;;;;;;;;;21.29;50.47;101561.94;7278902;19;153281;-57
2022/06/05 00:29:18;;;;;;;;;;;;;;;21.28;50.58;101571.50;7275574;19;153206;-56
2022/06/05 00:31:51;;;;;;;;;;;;;;;21.32;50.56;101563.31;7279796;19;152014;-57
2022/06/05 00:34:18;;;;;;;;;;;;;;;21.32;50.83;101566.13;7286710;19;153229;-56
2022/06/05 00:36:47;;;;;;;;;;;;;;;21.32;50.90;101552.06;7280002;19;152135;-56
2022/06/05 00:39:41;;;;;;;;;;;;;;;21.32;50.74;101559.66;7279820;19;153344;-57
2022/06/05 00:42:12;;;;;;;;;;;;;;;21.32;51.49;101551.22;7276552;19;153261;-56
2022/06/05 00:44:44;;;;;;;;;;;;;;;21.32;51.24;101554.88;7279363;19;152192;-56
2022/06/05 00:47:12;;;;;;;;;;;;;;;21.33;51.41;101561.34;7279095;19;153234;-56
2022/06/05 00:49:44;;;;;;;;;;;;;;;21.34;51.23;101568.66;7279775;19;153571;-56
2022/06/05 00:52:13;;;;;;;;;;;;;;;21.33;51.62;101567.81;7279964;19;152109;-56
2022/06/05 00:54:39;;;;;;;;;;;;;;;21.35;51.97;101567.53;7286491;19;153172;-56
2022/06/05 00:57:08;;;;;;;;;;;;;;;21.35;52.07;101559.09;7278339;19;152264;-56
2022/06/05 00:59:36;;;;;;;;;;;;;;;21.35;52.27;101554.28;7271446;19;152593;-56
2022/06/05 01:02:03;;;;;;;;;;;;;;;21.35;52.04;101540.22;7278829;19;153948;-55
2022/06/05 01:04:31;;;;;;;;;;;;;;;21.34;52.17;101535.75;7282650;19;152487;-56
2022/06/05 01:06:58;;;;;;;;;;;;;;;21.35;52.24;101520.53;7286094;19;153700;-57
2022/06/05 01:09:27;;;;;;;;;;;;;;;21.35;52.14;101519.75;7284199;19;153139;-57
2022/06/05 01:12:00;;;;;;;;;;;;;;;21.35;52.39;101517.72;7286069;19;151857;-56
2022/06/05 01:14:45;;;;;;;;;;;;;;;21.35;52.31;101526.16;7286000;19;154134;-56
2022/06/05 01:17:20;;;;;;;;;;;;;;;21.35;52.79;101520.53;7289764;19;153194;-56
2022/06/05 01:20:05;;;;;;;;;;;;;;;21.35;52.59;101526.16;7286078;19;152369;-56
2022/06/05 01:22:44;;;;;;;;;;;;;;;21.35;52.87;101520.53;7284100;19;154032;-55
2022/06/05 01:25:17;;;;;;;;;;;;;;;21.35;52.90;101520.53;7285954;19;153689;-56
2022/06/05 01:27:48;;;;;;;;;;;;;;;21.38;53.04;101519.13;7286696;19;153314;-56
2022/06/05 01:30:17;;;;;;;;;;;;;;;21.38;53.31;101516.31;7284264;19;153304;-56
2022/06/05 01:32:44;;;;;;;;;;;;;;;21.38;53.52;101496.63;7284763;19;151998;-56
2022/06/05 01:35:17;;;;;;;;;;;;;;;21.38;53.48;101488.19;7286716;19;153024;-56
2022/06/05 01:37:50;;;;;;;;;;;;;;;21.38;53.32;101486.22;7283808;19;153942;-56
2022/06/05 01:40:20;;;;;;;;;;;;;;;21.40;53.70;101488.72;7292714;19;151778;-56
2022/06/05 01:43:05;;;;;;;;;;;;;;;21.39;53.86;101482.28;7283603;19;153495;-56
2022/06/05 01:45:44;;;;;;;;;;;;;;;21.40;54.13;101491.53;7284949;19;151809;-56
2022/06/05 01:48:16;;;;;;;;;;;;;;;21.39;54.17;101490.72;7285117;19;155135;-56
2022/06/05 01:50:46;;;;;;;;;;;;;;;21.38;54.02;101489.03;7285078;19;154096;-56
2022/06/05 01:53:13;;;;;;;;;;;;;;;21.39;53.92;101485.09;7281358;19;152060;-56
2022/06/05 01:55:49;;;;;;;;;;;;;;;21.39;54.05;101485.09;7281592;19;153378;-56
2022/06/05 01:58:18;;;;;;;;;;;;;;;21.40;54.36;101461.44;7283209;19;153716;-56
2022/06/05 02:00:50;;;;;;;;;;;;;;;21.39;54.02;101442.94;7280350;19;152138;-56
2022/06/05 02:03:30;;;;;;;;;;;;;;;21.39;54.52;101445.75;7291743;19;154142;-56
2022/06/05 02:06:00;;;;;;;;;;;;;;;21.39;54.60;101451.38;7284134;19;152446;-56
2022/06/05 02:08:35;;;;;;;;;;;;;;;21.39;54.43;101440.13;7285538;19;153605;-56
2022/06/05 02:11:13;;;;;;;;;;;;;;;21.40;54.39;101429.69;7283576;19;154328;-56
2022/06/05 02:13:39;;;;;;;;;;;;;;;21.39;54.50;101428.03;7282867;19;151807;-57
2022/06/05 02:16:08;;;;;;;;;;;;;;;21.39;54.79;101428.03;7280365;19;152673;-56
2022/06/05 02:18:36;;;;;;;;;;;;;;;21.39;54.89;101422.41;7282348;19;153700;-57
2022/06/05 02:21:05;;;;;;;;;;;;;;;21.39;54.69;101431.69;7282927;19;151669;-55
2022/06/05 02:23:33;;;;;;;;;;;;;;;21.41;54.97;101422.94;7282983;19;153567;-56
2022/06/05 02:26:01;;;;;;;;;;;;;;;21.39;54.91;101426.06;7289511;19;153353;-56
2022/06/05 02:28:27;;;;;;;;;;;;;;;21.40;54.66;101422.09;7285823;19;152643;-56
2022/06/05 02:30:57;;;;;;;;;;;;;;;21.40;55.12;101424.91;7281110;19;154050;-56
2022/06/05 02:33:39;;;;;;;;;;;;;;;21.39;54.71;101414.81;7281698;19;152014;-56
2022/06/05 02:36:06;;;;;;;;;;;;;;;21.41;54.67;101406.06;7281133;19;153417;-56
2022/06/05 02:38:41;;;;;;;;;;;;;;;21.40;54.87;101413.66;7283281;19;152473;-56
2022/06/05 02:41:16;;;;;;;;;;;;;;;21.40;54.82;101410.00;7282299;19;152148;-60
2022/06/05 02:44:28;;;;;;;;;;;;;;;21.40;54.77;101405.22;7281291;19;153389;-56
2022/06/05 02:46:40;;;;;;;;;;;;;;;21.40;54.96;101405.22;7280732;19;153240;-56
2022/06/05 02:49:36;;;;;;;;;;;;;;;21.40;55.40;101395.94;7291251;19;151910;-56
2022/06/05 02:52:05;;;;;;;;;;;;;;;21.39;55.49;101397.97;7283401;19;153535;-56
2022/06/05 02:54:37;;;;;;;;;;;;;;;21.40;55.10;101393.97;7284990;19;151867;-56
2022/06/05 02:57:04;;;;;;;;;;;;;;;21.40;55.25;101388.34;7283922;19;152603;-56
2022/06/05 02:59:31;;;;;;;;;;;;;;;21.41;55.04;101392.00;7282845;19;153271;-57
2022/06/05 03:04:43;;;;;;;;;;;;;;;21.39;55.42;101389.53;7279826;19;152571;-56
2022/06/05 03:07:10;;;;;;;;;;;;;;;21.41;55.29;101389.19;7283054;19;153859;-57
2022/06/05 03:09:37;;;;;;;;;;;;;;;21.40;55.73;101373.47;7290645;19;151728;-57
2022/06/05 03:12:04;;;;;;;;;;;;;;;21.39;55.64;101367.03;7280865;19;153283;-55
2022/06/05 03:14:30;;;;;;;;;;;;;;;21.40;55.42;101373.47;7280833;19;152158;-56
2022/06/05 03:16:58;;;;;;;;;;;;;;;21.39;55.85;101361.41;7282651;19;152635;-56
2022/06/05 03:19:27;;;;;;;;;;;;;;;21.39;55.52;101364.22;7281382;19;154057;-55
2022/06/05 03:21:56;;;;;;;;;;;;;;;21.39;55.79;101367.03;7282007;19;152290;-56
2022/06/05 03:24:22;;;;;;;;;;;;;;;21.38;55.76;101362.53;7282136;19;153204;-57
2022/06/05 03:26:49;;;;;;;;;;;;;;;21.38;56.28;101353.28;7279783;19;153891;-56
2022/06/05 03:29:16;;;;;;;;;;;;;;;21.38;56.03;101358.91;7282471;19;152214;-56
2022/06/05 03:31:43;;;;;;;;;;;;;;;21.37;55.81;101349.63;7288341;19;152537;-56
2022/06/05 03:34:10;;;;;;;;;;;;;;;21.39;56.25;101349.31;7282455;19;152146;-56
2022/06/05 03:36:36;;;;;;;;;;;;;;;21.38;56.30;101356.91;7282183;19;152727;-56
2022/06/05 03:39:04;;;;;;;;;;;;;;;21.37;56.13;101363.69;7280579;19;153365;-56
2022/06/05 03:41:30;;;;;;;;;;;;;;;21.37;56.51;101360.88;7281338;19;152011;-56
2022/06/05 03:43:57;;;;;;;;;;;;;;;21.39;56.29;101369.84;7282790;19;153567;-56
2022/06/05 03:46:24;;;;;;;;;;;;;;;21.40;56.56;101367.84;7280214;19;154008;-56
2022/06/05 03:48:51;;;;;;;;;;;;;;;21.38;56.53;101365.34;7282362;19;151799;-56
2022/06/05 03:51:19;;;;;;;;;;;;;;;21.39;56.27;101371.81;7281851;19;152698;-56
2022/06/05 03:53:46;;;;;;;;;;;;;;;21.39;56.42;101366.19;7288316;19;153256;-56
2022/06/05 03:56:18;;;;;;;;;;;;;;;21.37;56.71;101365.66;7281117;19;153461;-56
2022/06/05 03:58:45;;;;;;;;;;;;;;;21.39;56.83;101369.84;7281279;19;153255;-56
2022/06/05 04:01:13;;;;;;;;;;;;;;;21.38;56.31;101367.31;7278807;19;152054;-57
2022/06/05 04:03:40;;;;;;;;;;;;;;;21.37;56.59;101366.50;7278116;19;153864;-55
2022/06/05 04:06:15;;;;;;;;;;;;;;;21.38;56.62;101370.97;7280161;19;153321;-56
2022/06/05 04:08:42;;;;;;;;;;;;;;;21.38;56.12;101368.16;7281204;19;152156;-56
2022/06/05 04:11:10;;;;;;;;;;;;;;;21.37;56.28;101363.69;7279249;19;153486;-56
2022/06/05 04:13:38;;;;;;;;;;;;;;;21.37;56.71;101372.09;7278626;19;154082;-56
2022/06/05 04:16:10;;;;;;;;;;;;;;;21.36;56.83;101373.25;7286869;19;151938;-56
2022/06/05 04:18:37;;;;;;;;;;;;;;;21.36;56.60;101370.44;7278423;19;154022;-55
2022/06/05 04:21:07;;;;;;;;;;;;;;;21.37;56.40;101371.28;7280441;19;152071;-56
2022/06/05 04:23:34;;;;;;;;;;;;;;;21.37;56.74;101374.09;7280067;19;152643;-56
2022/06/05 04:26:01;;;;;;;;;;;;;;;21.37;56.62;101371.28;7280831;19;154003;-56
2022/06/05 04:28:28;;;;;;;;;;;;;;;21.36;56.36;101381.66;7281135;19;151799;-56
2022/06/05 04:30:54;;;;;;;;;;;;;;;21.36;56.50;101376.06;7279895;19;153213;-56
2022/06/05 04:33:21;;;;;;;;;;;;;;;21.37;56.90;101379.69;7279216;19;153516;-56
2022/06/05 04:35:48;;;;;;;;;;;;;;;21.37;56.39;101377.72;7278812;19;152355;-56
2022/06/05 04:38:15;;;;;;;;;;;;;;;21.37;56.33;101372.09;7289275;19;153905;-56
2022/06/05 04:40:42;;;;;;;;;;;;;;;21.38;56.71;101373.78;7287456;19;152066;-57
2022/06/05 04:43:09;;;;;;;;;;;;;;;21.37;56.82;101363.69;7284280;19;153320;-56
2022/06/05 04:45:35;;;;;;;;;;;;;;;21.37;56.81;101357.22;7285205;19;154244;-56
2022/06/05 04:48:02;;;;;;;;;;;;;;;21.37;56.52;101366.50;7285544;19;151695;-56
2022/06/05 04:50:29;;;;;;;;;;;;;;;21.38;56.59;101362.53;7286686;19;154105;-56
2022/06/05 04:52:56;;;;;;;;;;;;;;;21.39;56.62;101378.28;7285303;19;153857;-56
2022/06/05 04:55:22;;;;;;;;;;;;;;;21.38;56.53;101379.41;7287328;19;151829;-56
2022/06/05 04:57:49;;;;;;;;;;;;;;;21.37;56.92;101374.09;7284045;19;153123;-56
2022/06/05 05:00:16;;;;;;;;;;;;;;;21.39;56.58;101374.63;7292049;19;152063;-56
2022/06/05 05:02:43;;;;;;;;;;;;;;;21.38;56.83;101378.56;7283463;19;154219;-56
2022/06/05 05:05:11;;;;;;;;;;;;;;;21.38;56.91;101381.38;7280510;19;153749;-56
2022/06/05 05:07:37;;;;;;;;;;;;;;;21.36;56.69;101380.84;7287163;19;152261;-56
2022/06/05 05:10:04;;;;;;;;;;;;;;;21.37;56.85;101386.16;7285004;19;152656;-56
2022/06/05 05:12:31;;;;;;;;;;;;;;;21.36;56.90;101376.06;7285235;19;154095;-56
2022/06/05 05:14:58;;;;;;;;;;;;;;;21.36;56.78;101370.44;7286725;19;151946;-56
2022/06/05 05:17:25;;;;;;;;;;;;;;;21.35;57.12;101373.56;7287100;19;153123;-55
2022/06/05 05:19:52;;;;;;;;;;;;;;;21.36;57.29;101376.06;7291474;19;153923;-56
2022/06/05 05:22:19;;;;;;;;;;;;;;;21.36;57.31;101373.25;7285646;19;154024;-56
2022/06/05 05:24:46;;;;;;;;;;;;;;;21.38;57.31;101370.97;7285061;19;153820;-55
2022/06/05 05:27:12;;;;;;;;;;;;;;;21.39;57.26;101369.84;7284008;19;151816;-56
2022/06/05 05:29:41;;;;;;;;;;;;;;;21.38;57.10;101359.72;7286565;19;153346;-55
2022/06/05 05:32:11;;;;;;;;;;;;;;;21.41;57.22;101355.47;7280088;19;152796;-57
2022/06/05 05:34:38;;;;;;;;;;;;;;;21.40;57.29;101377.13;7286283;19;151580;-56
2022/06/05 05:37:05;;;;;;;;;;;;;;;21.41;57.07;101373.16;7285543;19;152795;-56
2022/06/05 05:42:20;;;;;;;;;;;;;;;21.39;57.52;101374.63;7291411;19;151861;-57
2022/06/05 05:44:48;;;;;;;;;;;;;;;21.37;57.31;101377.72;7282905;19;154069;-56
2022/06/05 05:47:17;;;;;;;;;;;;;;;21.38;57.10;101375.75;7286159;19;152033;-57
2022/06/05 05:49:46;;;;;;;;;;;;;;;21.37;57.17;101374.91;7283559;19;152760;-56
2022/06/05 05:52:14;;;;;;;;;;;;;;;21.37;57.13;101371.28;7285008;19;154373;-56
2022/06/05 05:54:41;;;;;;;;;;;;;;;21.38;57.48;101367.31;7285146;19;152194;-57
2022/06/05 05:57:08;;;;;;;;;;;;;;;21.39;57.35;101364.22;7282911;19;152585;-55
2022/06/05 05:59:38;;;;;;;;;;;;;;;21.38;57.26;101372.94;7283360;19;153785;-56
2022/06/05 06:02:11;;;;;;;;;;;;;;;21.36;57.04;101364.81;7284797;19;152257;-57
2022/06/05 06:04:38;;;;;;;;;;;;;;;21.36;57.51;101359.19;7285279;19;153430;-57
2022/06/05 06:07:05;;;;;;;;;;;;;;;21.36;57.44;101367.63;7285012;19;151857;-56
2022/06/05 06:09:34;;;;;;;;;;;;;;;21.36;57.35;101372.41;7284457;19;153116;-56
2022/06/05 06:12:01;;;;;;;;;;;;;;;21.35;57.22;101377.19;7281725;19;154951;-56
2022/06/05 06:14:28;;;;;;;;;;;;;;;21.34;57.08;101375.53;7284823;19;152185;-56
2022/06/05 06:16:54;;;;;;;;;;;;;;;21.34;57.46;101372.72;7282800;19;152891;-56
2022/06/05 06:19:21;;;;;;;;;;;;;;;21.33;57.54;101387.91;7279182;19;154037;-56
2022/06/05 06:21:48;;;;;;;;;;;;;;;21.33;57.28;101393.53;7282344;19;151839;-56
2022/06/05 06:24:14;;;;;;;;;;;;;;;21.34;57.43;101388.75;7283871;19;152509;-56
2022/06/05 06:26:42;;;;;;;;;;;;;;;21.34;57.54;101386.78;7290828;19;154294;-56
2022/06/05 06:29:09;;;;;;;;;;;;;;;21.33;57.27;101381.44;7284458;19;155066;-55
2022/06/05 06:31:38;;;;;;;;;;;;;;;21.32;57.52;101389.03;7281094;19;153398;-56
2022/06/05 06:34:05;;;;;;;;;;;;;;;21.33;57.13;101381.44;7282814;19;153697;-56
2022/06/05 06:36:32;;;;;;;;;;;;;;;21.31;57.38;101373.31;7284695;19;153171;-56
2022/06/05 06:39:14;;;;;;;;;;;;;;;21.32;57.31;101377.81;7281760;19;154190;-56
2022/06/05 06:41:41;;;;;;;;;;;;;;;21.32;57.47;101374.16;7282808;19;152150;-56
2022/06/05 06:44:08;;;;;;;;;;;;;;;21.32;57.25;101376.97;7285365;19;153060;-56
2022/06/05 06:46:36;;;;;;;;;;;;;;;21.30;57.36;101366.84;7282250;19;153889;-56
2022/06/05 06:49:03;;;;;;;;;;;;;;;21.32;57.57;101366.56;7292279;19;152050;-56
2022/06/05 06:51:30;;;;;;;;;;;;;;;21.30;57.12;101355.59;7282860;19;153338;-56
2022/06/05 06:53:57;;;;;;;;;;;;;;;21.30;57.26;101354.81;7280848;19;151766;-56
2022/06/05 06:56:26;;;;;;;;;;;;;;;21.31;57.28;101359.25;7284464;19;152596;-56
2022/06/05 06:58:54;;;;;;;;;;;;;;;21.31;57.40;101364.88;7283625;19;154088;-56
2022/06/05 07:01:20;;;;;;;;;;;;;;;21.30;57.62;101357.63;7280637;19;159535;-56
2022/06/05 07:03:47;;;;;;;;;;;;;;;21.29;57.40;101351.16;7280175;19;152926;-56
2022/06/05 07:06:15;;;;;;;;;;;;;;;21.30;57.21;101349.19;7277376;19;152945;-55
2022/06/05 07:08:42;;;;;;;;;;;;;;;21.30;57.56;101346.38;7289457;19;151875;-56
2022/06/05 07:11:10;;;;;;;;;;;;;;;21.31;57.58;101359.25;7283161;19;154104;-56
2022/06/05 07:13:43;;;;;;;;;;;;;;;21.29;57.48;101359.59;7283626;19;152008;-57
2022/06/05 07:16:13;;;;;;;;;;;;;;;21.29;57.21;101364.38;7283164;19;153392;-57
2022/06/05 07:18:40;;;;;;;;;;;;;;;21.29;57.42;101376.44;7281318;19;153991;-56
2022/06/05 07:21:16;;;;;;;;;;;;;;;21.28;57.65;101369.16;7283646;19;151896;-56
2022/06/05 07:23:43;;;;;;;;;;;;;;;21.28;57.48;101368.31;7279408;19;152763;-56
2022/06/05 07:26:12;;;;;;;;;;;;;;;21.28;57.43;101371.97;7282297;19;154008;-56
2022/06/05 07:28:39;;;;;;;;;;;;;;;21.27;57.26;101372.25;7281669;19;154589;-56
2022/06/05 07:31:06;;;;;;;;;;;;;;;21.27;57.26;101375.06;7288108;19;152646;-56
2022/06/05 07:33:33;;;;;;;;;;;;;;;21.26;57.31;101371.41;7281939;19;151674;-55
2022/06/05 07:36:03;;;;;;;;;;;;;;;21.26;57.20;101377.03;7281683;19;153520;-56
2022/06/05 07:38:30;;;;;;;;;;;;;;;21.26;57.35;101370.56;7279733;19;153472;-57
2022/06/05 07:40:57;;;;;;;;;;;;;;;21.23;57.52;101369.22;7280826;19;151872;-56
2022/06/05 07:43:24;;;;;;;;;;;;;;;21.24;57.44;101370.91;7281532;19;153308;-56
2022/06/05 07:45:51;;;;;;;;;;;;;;;21.25;57.31;101374.53;7278142;19;154334;-56
2022/06/05 07:48:19;;;;;;;;;;;;;;;21.26;57.65;101365.78;7281992;19;151977;-56
2022/06/05 07:56:17;;;;;;;;;;;;;;;21.24;57.83;101367.25;7280976;19;154062;-56
2022/06/05 07:58:44;;;;;;;;;;;;;;;21.23;57.42;101366.41;7280052;19;153974;-55
2022/06/05 08:01:11;;;;;;;;;;;;;;;21.23;57.79;101369.22;7280550;19;152128;-57
2022/06/05 08:03:38;;;;;;;;;;;;;;;21.22;57.70;101370.34;7277608;19;153255;-56
2022/06/05 08:06:07;;;;;;;;;;;;;;;21.23;57.86;101368.38;7277488;19;153897;-56
2022/06/05 08:08:34;;;;;;;;;;;;;;;21.23;57.95;101354.31;7275851;19;151847;-56
2022/06/05 08:11:02;;;;;;;;;;;;;;;21.22;57.99;101356.31;7279672;19;153131;-56
2022/06/05 08:13:36;;;;;;;;;;;;;;;21.23;57.69;101362.75;7285271;19;153695;-57
2022/06/05 08:16:03;;;;;;;;;;;;;;;21.22;57.94;101369.50;7295025;19;151755;-56
2022/06/05 08:18:30;;;;;;;;;;;;;;;21.22;57.79;101361.09;7286641;19;154202;-56
2022/06/05 08:20:57;;;;;;;;;;;;;;;21.23;57.84;101359.94;7287774;19;151828;-57
2022/06/05 08:23:23;;;;;;;;;;;;;;;21.22;57.72;101364.72;7286449;19;152649;-57
2022/06/05 08:25:50;;;;;;;;;;;;;;;21.23;57.78;101359.94;7284852;19;153392;-57
2022/06/05 08:28:17;;;;;;;;;;;;;;;21.22;57.96;101359.09;7287197;19;153461;-56
2022/06/05 08:30:50;;;;;;;;;;;;;;;21.23;58.00;101354.31;7285958;19;153547;-55
2022/06/05 08:33:17;;;;;;;;;;;;;;;21.23;58.25;101354.31;7286018;19;154898;-56
2022/06/05 08:35:45;;;;;;;;;;;;;;;21.23;58.15;101351.53;7287077;19;151954;-56
2022/06/05 08:43:50;;;;;;;;;;;;;;;21.24;58.03;101347.56;7285995;19;153159;-57
2022/06/05 08:46:29;;;;;;;;;;;;;;;21.23;58.22;101348.72;7285982;19;154323;-56
2022/06/05 08:49:09;;;;;;;;;;;;;;;21.22;58.46;101356.31;7286504;19;154325;-56
2022/06/05 08:51:39;;;;;;;;;;;;;;;21.24;57.96;101347.56;7286604;19;153264;-56
2022/06/05 08:54:10;;;;;;;;;;;;;;;21.23;58.16;101349.53;7286578;19;153592;-56
2022/06/05 08:56:40;;;;;;;;;;;;;;;21.24;58.34;101347.56;7285459;19;154195;-56
2022/06/05 08:59:13;;;;;;;;;;;;;;;21.27;58.37;101345.00;7287506;19;152105;-56
2022/06/05 09:01:48;;;;;;;;;;;;;;;21.26;57.91;101351.75;7289548;19;155266;-56
2022/06/05 09:04:23;;;;;;;;;;;;;;;21.27;58.13;101358.19;7284439;19;153286;-56
2022/06/05 09:07:00;;;;;;;;;;;;;;;21.28;57.98;101359.88;7283154;19;153369;-56
2022/06/05 09:09:29;;;;;;;;;;;;;;;21.30;58.16;101355.59;7285254;19;151805;-56
2022/06/05 09:12:09;;;;;;;;;;;;;;;21.34;58.12;101349.41;7286862;19;154066;-56
2022/06/05 09:14:59;;;;;;;;;;;;;;;21.37;58.49;101358.06;7286105;19;153742;-57
2022/06/05 09:17:26;;;;;;;;;;;;;;;21.44;58.73;101358.50;7286526;19;155386;-56
2022/06/05 09:19:54;;;;;;;;;;;;;;;21.50;58.84;101362.06;7285357;19;152507;-56
2022/06/05 09:22:30;;;;;;;;;;;;;;;21.54;58.84;101354.69;7292867;19;153239;-55
2022/06/05 09:25:16;;;;;;;;;;;;;;;21.62;58.81;101359.66;7281505;19;154105;-56
2022/06/05 09:27:43;;;;;;;;;;;;;;;21.68;58.97;101356.44;7285391;19;154284;-56
2022/06/05 09:30:15;;;;;;;;;;;;;;;21.79;58.50;101357.09;7285571;19;151791;-56
2022/06/05 09:33:01;;;;;;;;;;;;;;;21.87;58.97;101352.75;7285308;19;153081;-56
2022/06/05 09:35:35;;;;;;;;;;;;;;;21.95;58.63;101363.31;7282894;19;153957;-56
2022/06/05 09:38:16;;;;;;;;;;;;;;;22.02;58.85;101355.34;7285917;19;151996;-56
2022/06/05 09:40:51;;;;;;;;;;;;;;;22.10;58.57;101346.16;7285127;19;152591;-56
2022/06/05 09:43:38;;;;;;;;;;;;;;;22.18;57.76;101337.84;7283099;19;154145;-56
2022/06/05 09:46:28;;;;;;;;;;;;;;;22.20;56.90;101334.72;7294042;19;152535;-56
2022/06/05 09:49:17;;;;;;;;;;;;;;;22.25;56.08;101322.53;7284970;19;153737;-56
2022/06/05 09:51:45;;;;;;;;;;;;;;;22.30;55.70;101328.91;7285463;19;152722;-56
2022/06/05 09:54:20;;;;;;;;;;;;;;;22.34;55.41;101315.03;7284970;19;153176;-55
2022/06/05 09:59:46;;;;;;;;;;;;;;;22.44;54.50;101314.84;7279276;19;152473;-56
2022/06/05 10:02:15;;;;;;;;;;;;;;;22.47;53.95;101312.22;7283657;19;154165;-56
2022/06/05 10:04:42;;;;;;;;;;;;;;;22.48;54.14;101315.88;7281869;19;154246;-55
2022/06/05 10:07:32;;;;;;;;;;;;;;;22.51;53.87;101316.09;7280520;19;152429;-55
2022/06/05 10:10:03;;;;;;;;;;;;;;;22.54;53.45;101315.44;7286282;19;152586;-56
2022/06/05 10:12:39;;;;;;;;;;;;;;;22.57;53.00;101317.66;7284848;19;151671;-56
2022/06/05 10:15:06;;;;;;;;;;;;;;;22.59;53.12;101320.16;7286136;19;153128;-56
2022/06/05 10:17:48;;;;;;;;;;;;;;;22.60;53.04;101322.66;7282265;19;154177;-56
2022/06/05 10:20:24;;;;;;;;;;;;;;;22.63;52.73;101332.44;7283887;19;151841;-56
2022/06/05 10:22:55;;;;;;;;;;;;;;;22.65;52.60;101318.06;7284110;19;153804;-56
2022/06/05 10:25:29;;;;;;;;;;;;;;;22.65;52.71;101313.25;7279884;19;153257;-56
2022/06/05 10:27:59;;;;;;;;;;;;;;;22.67;52.35;101308.13;7285348;19;151668;-56
2022/06/05 10:30:31;;;;;;;;;;;;;;;22.68;51.95;101314.59;7284839;19;153134;-56
2022/06/05 10:33:01;;;;;;;;;;;;;;;22.69;52.07;101311.50;7289582;19;153282;-56
2022/06/05 10:35:44;;;;;;;;;;;;;;;22.71;51.94;101312.06;7281802;19;153479;-56
2022/06/05 10:38:10;;;;;;;;;;;;;;;22.72;51.85;101315.69;7282926;19;153272;-56
2022/06/05 10:40:45;;;;;;;;;;;;;;;22.73;52.13;101311.72;7284453;19;151829;-56
2022/06/05 10:43:13;;;;;;;;;;;;;;;22.72;51.57;101310.88;7283280;19;152727;-56
2022/06/05 10:45:48;;;;;;;;;;;;;;;22.74;51.71;101310.56;7282578;19;154350;-56
2022/06/05 10:48:22;;;;;;;;;;;;;;;22.73;51.54;101312.56;7283541;19;151972;-56
2022/06/05 10:50:55;;;;;;;;;;;;;;;22.74;51.90;101316.22;7281436;19;153456;-56
2022/06/05 10:53:40;;;;;;;;;;;;;;;22.74;51.56;101322.69;7282553;19;154215;-56
2022/06/05 10:56:28;;;;;;;;;;;;;;;22.74;51.35;101316.22;7290995;19;153071;-56
2022/06/05 10:59:10;;;;;;;;;;;;;;;22.75;51.60;101321.53;7155061;19;3288576;-56
2022/06/05 11:01:40;;;;;;;;;;;;;;;22.74;51.41;101313.38;7315819;19;153689;-56
2022/06/05 11:04:25;;;;;;;;;;;;;;;22.75;51.63;101312.25;7314923;19;152295;-56
2022/06/05 11:06:58;;;;;;;;;;;;;;;22.72;51.46;101307.22;7317232;19;153139;-56
2022/06/05 11:09:41;;;;;;;;;;;;;;;22.71;51.72;101305.59;7311797;19;154009;-56
2022/06/05 11:15:06;;;;;;;;;;;;;;;22.71;51.89;101314.03;7316488;19;153260;-56
2022/06/05 11:17:39;;;;;;;;;;;;;;;22.71;51.78;101317.69;7314912;19;154277;-56
2022/06/05 11:20:12;;;;;;;;;;;;;;;22.70;51.44;101327.28;7323615;19;152146;-56
2022/06/05 11:22:46;;;;;;;;;;;;;;;22.69;51.93;101324.72;7313755;19;153149;-56
2022/06/05 11:25:20;;;;;;;;;;;;;;;22.67;51.81;101327.03;7314954;19;153063;-56
2022/06/05 11:28:00;;;;;;;;;;;;;;;22.65;51.78;101321.72;7315046;19;153026;-56
2022/06/05 11:30:34;;;;;;;;;;;;;;;22.63;52.15;101329.63;7315230;19;153307;-56
2022/06/05 11:33:11;;;;;;;;;;;;;;;22.61;51.92;101324.34;7315583;19;154110;-55
2022/06/05 11:35:49;;;;;;;;;;;;;;;22.59;52.27;101322.97;7315268;19;153362;-56
2022/06/05 11:38:16;;;;;;;;;;;;;;;22.58;52.08;101324.09;7312350;19;155312;-56
2022/06/05 11:40:46;;;;;;;;;;;;;;;22.52;51.93;101326.22;7316660;19;151670;-56
2022/06/05 11:43:42;;;;;;;;;;;;;;;22.48;50.90;101327.16;7320257;19;153560;-57
2022/06/05 11:46:35;;;;;;;;;;;;;;;22.34;50.78;101324.31;7314261;19;152146;-56
2022/06/05 11:49:13;;;;;;;;;;;;;;;22.30;50.77;101334.53;7315458;19;153217;-57
2022/06/05 11:51:52;;;;;;;;;;;;;;;22.16;50.83;101328.91;7315219;19;153708;-56
2022/06/05 11:54:19;;;;;;;;;;;;;;;22.16;50.94;101328.91;7315220;19;151729;-57
2022/06/05 11:56:48;;;;;;;;;;;;;;;22.15;50.93;101327.22;7315018;19;152278;-56
2022/06/05 11:59:24;;;;;;;;;;;;;;;22.04;51.46;101325.72;7311115;19;153312;-56
2022/06/05 12:02:01;;;;;;;;;;;;;;;22.00;51.60;101330.31;7314253;19;152428;-56
2022/06/05 12:04:37;;;;;;;;;;;;;;;22.01;51.48;101329.16;7315284;19;153389;-56
2022/06/05 12:07:06;;;;;;;;;;;;;;;21.87;51.79;101327.44;7318569;19;154129;-56
2022/06/05 12:09:47;;;;;;;;;;;;;;;21.82;52.47;101333.13;7295215;19;153647;-56
2022/06/05 12:12:20;;;;;;;;;;;;;;;21.79;52.21;101333.75;7281846;19;154592;-56
2022/06/05 12:14:50;;;;;;;;;;;;;;;21.67;53.01;101334.22;7285531;19;151667;-57
2022/06/05 12:17:22;;;;;;;;;;;;;;;21.74;52.88;101338.34;7285734;19;153293;-56
2022/06/05 12:19:58;;;;;;;;;;;;;;;21.83;53.29;101332.84;7283658;19;153351;-56
2022/06/05 12:22:24;;;;;;;;;;;;;;;21.83;53.49;101330.03;7286128;19;152414;-55
2022/06/05 12:24:56;;;;;;;;;;;;;;;21.83;53.76;101329.19;7286488;19;152521;-55
2022/06/05 12:27:24;;;;;;;;;;;;;;;21.86;53.91;101326.59;7282232;19;153833;-56
2022/06/05 12:30:03;;;;;;;;;;;;;;;21.87;54.22;101327.44;7293454;19;155406;-55
2022/06/05 12:32:35;;;;;;;;;;;;;;;21.91;54.17;101331.28;7284140;19;154952;-56
2022/06/05 12:35:05;;;;;;;;;;;;;;;21.89;54.12;101330.78;7284607;19;151629;-56
2022/06/05 12:37:38;;;;;;;;;;;;;;;21.89;54.28;101330.78;7285661;19;153045;-55
2022/06/05 12:40:14;;;;;;;;;;;;;;;21.89;54.45;101325.16;7286268;19;153259;-56
2022/06/05 12:42:45;;;;;;;;;;;;;;;21.86;54.23;101317.31;7287833;19;152424;-56
2022/06/05 12:45:21;;;;;;;;;;;;;;;21.85;54.22;101318.47;7287640;19;153093;-56
2022/06/05 12:47:57;;;;;;;;;;;;;;;21.88;53.94;101320.66;7284709;19;152174;-56
2022/06/05 12:50:32;;;;;;;;;;;;;;;21.88;54.00;101318.69;7287487;19;151920;-55
2022/06/05 12:53:02;;;;;;;;;;;;;;;21.89;54.30;101325.16;7294107;19;152281;-55
2022/06/05 12:55:40;;;;;;;;;;;;;;;21.84;54.01;101314.00;7285700;19;153377;-55
2022/06/05 12:58:10;;;;;;;;;;;;;;;21.83;54.11;101324.41;7286025;19;152567;-55
2022/06/05 13:00:45;;;;;;;;;;;;;;;21.82;54.50;101321.88;7286129;19;154268;-56
2022/06/05 13:03:27;;;;;;;;;;;;;;;21.81;53.97;101321.03;7287334;19;152149;-56
2022/06/05 13:06:01;;;;;;;;;;;;;;;21.79;54.25;101323.34;7285500;19;153735;-56
2022/06/05 13:08:30;;;;;;;;;;;;;;;21.79;54.67;101322.50;7285072;19;154163;-56